createdAt,value
2019-05-29T00:04:01.279Z,10.70
2019-05-29T00:09:08.022Z,10.60
2019-05-29T00:14:22.928Z,10.60
2019-05-29T00:19:20.225Z,10.50
2019-05-29T00:24:25.315Z,10.50
2019-05-29T00:29:30.572Z,10.40
2019-05-29T00:34:35.619Z,10.40
2019-05-29T00:39:40.730Z,10.30
2019-05-29T00:44:45.734Z,10.30
2019-05-29T00:49:50.711Z,10.20
2019-05-29T00:54:55.686Z,10.10
2019-05-29T01:00:00.649Z,10.00
2019-05-29T01:05:06.633Z,10.00
2019-05-29T01:10:13.118Z,9.90
2019-05-29T01:15:19.558Z,9.70
2019-05-29T01:20:24.535Z,9.70
2019-05-29T01:25:29.505Z,9.60
2019-05-29T01:30:34.576Z,9.60
2019-05-29T01:35:39.515Z,9.50
2019-05-29T01:40:44.553Z,9.50
2019-05-29T01:45:49.510Z,9.40
2019-05-29T01:50:54.507Z,9.30
2019-05-29T01:55:59.438Z,9.30
2019-05-29T02:01:04.489Z,9.20
2019-05-29T02:06:09.538Z,9.20
2019-05-29T02:11:15.018Z,9.10
2019-05-29T02:16:20.677Z,9.00
2019-05-29T02:21:25.943Z,9.00
2019-05-29T02:26:30.966Z,9.00
2019-05-29T02:31:35.905Z,8.90
2019-05-29T02:36:40.867Z,8.80
2019-05-29T02:46:50.347Z,8.60
2019-05-29T02:51:55.329Z,8.50
2019-05-29T02:57:00.340Z,8.40
2019-05-29T03:02:05.449Z,8.30
2019-05-29T03:07:10.552Z,8.20
2019-05-29T03:12:15.515Z,8.20
2019-05-29T03:17:20.469Z,8.10
2019-05-29T03:22:26.286Z,8.10
2019-05-29T03:27:31.946Z,8.00
2019-05-29T03:32:45.688Z,8.00
2019-05-29T03:37:43.644Z,7.90
2019-05-29T03:42:48.654Z,8.00
2019-05-29T03:47:53.622Z,8.00
2019-05-29T03:52:58.575Z,8.20
2019-05-29T03:58:03.578Z,8.40
2019-05-29T04:03:08.623Z,8.50
2019-05-29T04:08:13.645Z,8.70
2019-05-29T04:13:18.823Z,8.90
2019-05-29T04:18:24.998Z,9.10
2019-05-29T04:23:34.049Z,9.40
2019-05-29T04:28:39.313Z,9.50
2019-05-29T04:33:44.262Z,9.50
2019-05-29T04:38:49.304Z,9.50
2019-05-29T04:43:57.080Z,9.60
2019-05-29T04:49:00.903Z,9.70
2019-05-29T04:54:06.071Z,9.70
2019-05-29T04:59:11.062Z,9.80
2019-05-29T05:04:15.990Z,9.80
2019-05-29T05:09:21.026Z,9.90
2019-05-29T05:14:26.049Z,10.10
2019-05-29T05:19:31.801Z,10.20
2019-05-29T05:24:40.875Z,10.20
2019-05-29T05:29:43.490Z,10.30
2019-05-29T05:34:48.504Z,10.60
2019-05-29T05:39:53.491Z,10.70
2019-05-29T05:44:58.418Z,10.80
2019-05-29T05:50:04.271Z,11.00
2019-05-29T05:55:09.486Z,11.00
2019-05-29T06:00:16.911Z,11.10
2019-05-29T06:05:21.949Z,11.30
2019-05-29T06:10:27.057Z,11.40
2019-05-29T06:15:32.378Z,11.50
2019-05-29T06:20:38.908Z,11.70
2019-05-29T06:25:44.086Z,11.70
2019-05-29T06:30:49.482Z,12.10
2019-05-29T06:35:54.524Z,12.60
2019-05-29T06:40:59.575Z,12.80
2019-05-29T06:46:05.731Z,12.90
2019-05-29T06:51:10.744Z,12.90
2019-05-29T06:56:16.674Z,13.00
2019-05-29T07:01:23.778Z,13.00
2019-05-29T07:06:29.462Z,13.40
2019-05-29T07:11:34.570Z,13.80
2019-05-29T07:16:45.254Z,14.00
2019-05-29T07:21:47.232Z,14.00
2019-05-29T07:26:52.381Z,13.90
2019-05-29T07:31:57.354Z,13.90
2019-05-29T07:37:02.403Z,13.60
2019-05-29T07:42:07.351Z,14.30
2019-05-29T07:47:12.355Z,14.80
2019-05-29T07:52:17.399Z,15.20
2019-05-29T07:57:22.438Z,15.40
2019-05-29T08:02:28.460Z,15.20
2019-05-29T08:07:33.460Z,14.80
2019-05-29T08:12:42.287Z,14.90
2019-05-29T08:17:46.205Z,14.80
2019-05-29T08:22:51.539Z,14.90
2019-05-29T08:27:56.696Z,15.10
2019-05-29T08:33:01.672Z,14.70
2019-05-29T08:38:06.799Z,14.40
2019-05-29T08:43:14.886Z,14.70
2019-05-29T08:48:19.782Z,15.10
2019-05-29T08:53:24.654Z,14.30
2019-05-29T08:58:29.754Z,14.20
2019-05-29T09:03:34.734Z,14.50
2019-05-29T09:08:39.799Z,15.20
2019-05-29T09:13:44.851Z,15.80
2019-05-29T09:18:49.817Z,15.80
2019-05-29T09:23:58.534Z,15.30
2019-05-29T09:29:01.473Z,15.30
2019-05-29T09:34:06.577Z,16.10
2019-05-29T09:39:11.698Z,16.40
2019-05-29T09:44:33.011Z,16.10
2019-05-29T09:49:23.957Z,15.60
2019-05-29T09:54:29.186Z,15.90
2019-05-29T09:59:34.232Z,16.10
2019-05-29T10:04:39.340Z,16.20
2019-05-29T10:09:44.284Z,16.60
2019-05-29T10:14:51.384Z,17.10
2019-05-29T10:19:57.190Z,16.60
2019-05-29T10:25:03.582Z,16.20
2019-05-29T10:30:09.501Z,16.00
2019-05-29T10:35:14.650Z,16.60
2019-05-29T10:40:20.260Z,17.40
2019-05-29T10:45:25.567Z,16.90
2019-05-29T10:50:30.622Z,16.70
2019-05-29T10:55:35.614Z,17.00
2019-05-29T11:00:40.723Z,16.40
2019-05-29T11:05:45.724Z,16.20
2019-05-29T11:10:52.083Z,16.40
2019-05-29T11:15:57.109Z,16.00
2019-05-29T11:21:02.194Z,16.00
2019-05-29T11:26:07.343Z,16.60
2019-05-29T11:31:12.301Z,16.80
2019-05-29T11:36:17.270Z,16.60
2019-05-29T11:41:26.382Z,16.30
2019-05-29T11:46:29.034Z,17.00
2019-05-29T11:51:34.058Z,16.30
2019-05-29T11:56:39.022Z,16.10
2019-05-29T12:01:50.162Z,16.30
2019-05-29T12:06:51.190Z,16.50
2019-05-29T12:11:56.241Z,16.70
2019-05-29T12:17:02.517Z,16.70
2019-05-29T12:22:07.916Z,16.30
2019-05-29T12:27:13.110Z,16.50
2019-05-29T12:32:21.246Z,16.80
2019-05-29T12:37:26.182Z,17.20
2019-05-29T12:42:31.298Z,18.00
2019-05-29T12:47:36.426Z,17.80
2019-05-29T12:52:43.192Z,17.30
2019-05-29T12:57:48.310Z,17.50
2019-05-29T13:02:56.173Z,17.20
2019-05-29T13:08:03.079Z,17.10
2019-05-29T13:13:11.055Z,17.70
2019-05-29T13:18:15.030Z,17.80
2019-05-29T13:23:19.983Z,17.50
2019-05-29T13:28:24.919Z,17.70
2019-05-29T13:33:29.934Z,17.70
2019-05-29T13:38:34.937Z,18.40
2019-05-29T13:43:39.951Z,18.70
2019-05-29T13:48:44.921Z,18.50
2019-05-29T13:54:02.636Z,18.30
2019-05-29T13:58:57.756Z,18.10
2019-05-29T14:04:05.124Z,18.50
2019-05-29T14:09:10.785Z,18.60
2019-05-29T14:14:15.830Z,18.30
2019-05-29T14:19:20.878Z,17.50
2019-05-29T14:24:29.730Z,18.10
2019-05-29T14:29:32.537Z,17.80
2019-05-29T14:34:37.625Z,17.80
2019-05-29T14:39:42.670Z,18.00
2019-05-29T14:44:47.708Z,18.70
2019-05-29T14:49:52.814Z,18.90
2019-05-29T14:54:57.826Z,19.00
2019-05-29T15:00:13.704Z,19.00
2019-05-29T15:05:14.715Z,18.40
2019-05-29T15:10:26.744Z,19.50
2019-05-29T15:15:26.405Z,21.10
2019-05-29T15:20:31.423Z,21.10
2019-05-29T15:25:36.455Z,21.20
2019-05-29T15:30:41.395Z,21.50
2019-05-29T15:35:46.412Z,21.80
2019-05-29T15:40:58.796Z,22.10
2019-05-29T15:46:03.969Z,22.70
2019-05-29T15:51:08.884Z,22.70
2019-05-29T15:56:25.423Z,21.60
2019-05-29T16:01:21.462Z,22.30
2019-05-29T16:06:28.638Z,23.30
2019-05-29T16:11:34.475Z,25.00
2019-05-29T16:16:39.674Z,25.10
2019-05-29T16:21:44.690Z,23.90
2019-05-29T16:26:49.591Z,25.20
2019-05-29T16:31:54.558Z,24.80
2019-05-29T16:36:59.494Z,24.40
2019-05-29T16:42:04.526Z,24.70
2019-05-29T16:47:10.643Z,26.70
2019-05-29T16:52:16.748Z,24.10
2019-05-29T16:57:23.203Z,21.90
2019-05-29T17:02:29.545Z,20.20
2019-05-29T17:07:34.567Z,18.70
2019-05-29T17:12:39.607Z,18.00
2019-05-29T17:17:44.644Z,17.70
2019-05-29T17:22:49.585Z,17.50
2019-05-29T17:27:54.562Z,18.40
2019-05-29T17:32:59.742Z,21.10
2019-05-29T17:38:05.019Z,20.10
2019-05-29T17:43:10.226Z,19.30
2019-05-29T17:48:15.512Z,19.60
2019-05-29T17:53:22.329Z,19.10
2019-05-29T17:58:27.645Z,19.80
2019-05-29T18:03:32.817Z,19.40
2019-05-29T18:08:37.918Z,18.90
2019-05-29T18:13:42.890Z,18.30
2019-05-29T18:18:48.038Z,17.40
2019-05-29T18:23:53.660Z,17.10
2019-05-29T18:28:58.909Z,16.60
2019-05-29T18:34:05.017Z,16.20
2019-05-29T18:39:10.190Z,15.80
2019-05-29T18:44:15.221Z,15.20
2019-05-29T18:49:20.409Z,14.90
2019-05-29T18:54:25.834Z,14.60
2019-05-29T18:59:31.732Z,14.40
2019-05-29T19:04:36.843Z,14.10
2019-05-29T19:09:41.917Z,13.80
2019-05-29T19:14:46.806Z,13.60
2019-05-29T19:19:51.770Z,13.30
2019-05-29T19:24:56.886Z,13.20
2019-05-29T19:30:02.005Z,13.00
2019-05-29T19:35:10.066Z,12.80
2019-05-29T19:40:15.438Z,12.60
2019-05-29T19:45:20.799Z,12.40
2019-05-29T19:50:26.703Z,12.30
2019-05-29T19:55:36.293Z,12.10
2019-05-29T20:00:39.698Z,11.90
2019-05-29T20:05:44.795Z,11.70
2019-05-29T20:10:49.905Z,11.60
2019-05-29T20:15:54.903Z,11.40
2019-05-29T20:20:59.934Z,11.30
2019-05-29T20:26:05.235Z,11.20
2019-05-29T20:31:12.067Z,11.00
2019-05-29T20:36:16.938Z,10.90
2019-05-29T20:41:21.887Z,10.70
2019-05-29T20:46:26.850Z,10.50
2019-05-29T20:51:32.803Z,10.40
2019-05-29T20:56:39.806Z,10.20
2019-05-29T21:01:47.349Z,10.10
2019-05-29T21:06:51.437Z,10.00
2019-05-29T21:11:56.369Z,9.90
2019-05-29T21:17:01.366Z,9.80
2019-05-29T21:22:07.523Z,9.70
2019-05-29T21:27:12.618Z,9.60
2019-05-29T21:32:17.546Z,9.60
2019-05-29T21:37:22.620Z,9.50
2019-05-29T21:42:27.671Z,9.40
2019-05-29T21:47:32.685Z,9.20
2019-05-29T21:52:37.707Z,9.20
2019-05-29T21:57:46.419Z,9.10
2019-05-29T22:02:49.439Z,9.00
2019-05-29T22:07:54.587Z,8.90
2019-05-29T22:13:00.659Z,8.80
2019-05-29T22:18:06.090Z,8.60
2019-05-29T22:23:11.114Z,8.50
2019-05-29T22:28:16.145Z,8.40
2019-05-29T22:33:21.175Z,8.30
2019-05-29T22:38:26.178Z,8.10
2019-05-29T22:43:31.280Z,8.10
2019-05-29T22:48:36.293Z,7.90
2019-05-29T22:53:41.230Z,7.90
2019-05-29T22:58:47.355Z,7.80
2019-05-29T23:03:54.128Z,7.70
2019-05-29T23:09:00.401Z,7.60
2019-05-29T23:14:05.626Z,7.50
2019-05-29T23:19:10.722Z,7.40
2019-05-29T23:24:15.693Z,7.20
2019-05-29T23:29:20.688Z,7.10
2019-05-29T23:34:25.651Z,7.00
2019-05-29T23:39:30.678Z,6.80
2019-05-29T23:44:35.719Z,6.70
2019-05-29T23:49:40.727Z,6.50
2019-05-29T23:54:45.607Z,6.40
